createdAt,value
2022-12-08T00:00:00.000Z,11.12
2022-12-08T00:15:00.000Z,11.45
2022-12-08T00:30:00.000Z,11.39
2022-12-08T00:45:00.000Z,11.19
2022-12-08T01:00:00.000Z,11.45
2022-12-08T01:15:00.000Z,11.73
2022-12-08T01:30:00.000Z,11.8
2022-12-08T01:45:00.000Z,11.34
2022-12-08T02:00:00.000Z,11.52
2022-12-08T02:15:00.000Z,11.61
2022-12-08T02:30:00.000Z,11.76
2022-12-08T02:45:00.000Z,11.92
2022-12-08T03:00:00.000Z,11.78
2022-12-08T03:15:00.000Z,10.66
2022-12-08T03:30:00.000Z,9.28
2022-12-08T03:45:00.000Z,10.44
2022-12-08T04:00:00.000Z,10.78
2022-12-08T04:15:00.000Z,9.81
2022-12-08T04:30:00.000Z,9.51
2022-12-08T04:45:00.000Z,8.96
2022-12-08T05:00:00.000Z,9.01
2022-12-08T05:15:00.000Z,9.21
2022-12-08T05:30:00.000Z,9.94
2022-12-08T05:45:00.000Z,10.55
2022-12-08T06:00:00.000Z,13.6
2022-12-08T06:15:00.000Z,10.92
2022-12-08T06:45:00.000Z,9
2022-12-08T06:45:00.000Z,9.02
2022-12-08T07:00:00.000Z,11.69
2022-12-08T07:15:00.000Z,10.99
2022-12-08T07:30:00.000Z,11.54
2022-12-08T07:45:00.000Z,11.22
2022-12-08T08:00:00.000Z,10.91
2022-12-08T08:15:00.000Z,12.72
2022-12-08T08:30:00.000Z,9.36
2022-12-08T08:45:00.000Z,9.61
2022-12-08T09:00:00.000Z,8.83
2022-12-08T09:15:00.000Z,9.08
2022-12-08T09:30:00.000Z,7.98
2022-12-08T09:45:00.000Z,6.84
2022-12-08T10:00:00.000Z,7.22
2022-12-08T10:15:00.000Z,6.74
2022-12-08T10:30:00.000Z,6.47
2022-12-08T10:45:00.000Z,5.79
2022-12-08T11:00:00.000Z,5.42
2022-12-08T11:15:00.000Z,5.05
2022-12-08T11:30:00.000Z,5.35
2022-12-08T11:45:00.000Z,5.55
2022-12-08T12:00:00.000Z,5.46
2022-12-08T12:15:00.000Z,6.15
2022-12-08T12:30:00.000Z,5.42
2022-12-08T12:45:00.000Z,5.6
2022-12-08T13:00:00.000Z,7.85
2022-12-08T13:15:00.000Z,7.75
2022-12-08T13:30:00.000Z,7.25
2022-12-08T13:45:00.000Z,7.62
2022-12-08T14:00:00.000Z,9.44
2022-12-08T14:15:00.000Z,12.31
2022-12-08T14:30:00.000Z,13.51
2022-12-08T14:45:00.000Z,15.22
2022-12-08T15:00:00.000Z,14
2022-12-08T15:15:00.000Z,11.24
2022-12-08T15:30:00.000Z,7.47
2022-12-08T15:45:00.000Z,7.56
2022-12-08T16:15:00.000Z,9.31
2022-12-08T16:30:00.000Z,10.24
2022-12-08T16:45:00.000Z,9.47
2022-12-08T17:00:00.000Z,10.41
2022-12-08T17:15:00.000Z,11.28
2022-12-08T17:30:00.000Z,11.61
2022-12-08T17:45:00.000Z,11.95
2022-12-08T18:00:00.000Z,14.12
2022-12-08T18:15:00.000Z,13.16
2022-12-08T18:30:00.000Z,15.47
2022-12-08T18:45:00.000Z,15.81
2022-12-08T19:00:00.000Z,18.92
2022-12-08T19:15:00.000Z,25.73
2022-12-08T19:30:00.000Z,23.71
2022-12-08T19:45:00.000Z,20.33
2022-12-08T20:00:00.000Z,25.62
2022-12-08T20:15:00.000Z,26.29
2022-12-08T20:30:00.000Z,23.87
2022-12-08T20:45:00.000Z,21.56
2022-12-08T21:00:00.000Z,20.76
2022-12-08T21:15:00.000Z,19.78
2022-12-08T21:30:00.000Z,19.36
2022-12-08T21:45:00.000Z,18.09
2022-12-08T22:00:00.000Z,17.91
2022-12-08T22:15:00.000Z,20.64
2022-12-08T22:30:00.000Z,16.29
2022-12-08T22:45:00.000Z,14.66
2022-12-08T23:00:00.000Z,13.32
2022-12-08T23:15:00.000Z,13.29
2022-12-08T23:30:00.000Z,12.56
2022-12-08T23:45:00.000Z,11.87
